Time;durP1;ratioP1;P1;durP2;ratioP2;P2;SDS_P1;SDS_P2;PMS_P1;PMS_P2;Temp;Humidity;BMP_temperature;BMP_pressure;BME280_temperature;BME280_humidity;BME280_pressure;Samples;Min_cycle;Max_cycle;Signal;HPM_P1;HPM_P2
2022/04/07 00:04:54;;;;;;;31.20;19.50;;;;;;;2.60;93.95;100733.91;10335342;28;20506;-76
2022/04/07 00:09:54;;;;;;;27.50;19.23;;;;;;;2.18;94.04;100686.13;10334853;28;20092;-76
2022/04/07 00:14:55;;;;;;;24.02;16.70;;;;;;;2.43;93.94;100744.78;10333285;28;20045;-76
2022/04/07 00:19:56;;;;;;;24.00;13.60;;;;;;;2.16;93.93;100703.78;10334332;28;20181;-75
2022/04/07 00:24:57;;;;;;;26.25;16.52;;;;;;;2.25;93.43;100725.91;10333412;28;20577;-75
2022/04/07 00:29:58;;;;;;;20.10;14.30;;;;;;;1.96;93.86;100691.19;10347965;28;20038;-75
2022/04/07 00:34:58;;;;;;;29.95;16.55;;;;;;;1.73;93.88;100649.03;10374704;28;20050;-75
2022/04/07 00:39:59;;;;;;;21.17;15.80;;;;;;;1.83;94.39;100671.06;10374596;28;20499;-75
2022/04/07 00:45:01;;;;;;;22.77;14.00;;;;;;;2.16;94.85;100752.75;10374350;28;20136;-75
2022/04/07 00:50:01;;;;;;;23.80;13.32;;;;;;;0.96;93.81;100584.41;10373801;28;20129;-75
2022/04/07 00:55:03;;;;;;;26.65;15.88;;;;;;;1.93;94.46;100749.03;10356397;28;20046;-75
2022/04/07 01:00:05;;;;;;;30.15;14.40;;;;;;;1.84;94.33;100729.53;10355857;28;20079;-75
2022/04/07 01:05:09;;;;;;;19.42;14.55;;;;;;;1.67;93.70;100722.78;10372684;28;20041;-75
2022/04/07 01:10:10;;;;;;;18.63;13.90;;;;;;;1.76;94.10;100743.13;10373592;28;20552;-75
2022/04/07 01:15:11;;;;;;;24.50;15.50;;;;;;;1.76;93.62;100744.91;10373066;28;20136;-75
2022/04/07 01:20:12;;;;;;;16.67;12.52;;;;;;;1.70;93.60;100748.75;10373413;28;20128;-75
2022/04/07 01:25:13;;;;;;;16.88;13.38;;;;;;;0.81;93.24;100618.50;10371754;28;20451;-75
2022/04/07 01:30:14;;;;;;;18.50;12.85;;;;;;;1.02;93.55;100675.59;10372755;28;20406;-75
2022/04/07 01:35:15;;;;;;;17.17;12.38;;;;;;;1.58;93.42;100765.28;10371678;28;20053;-76
2022/04/07 01:40:21;;;;;;;18.15;12.50;;;;;;;1.52;93.64;100761.28;10355342;28;20041;-75
2022/04/07 01:45:22;;;;;;;18.77;13.80;;;;;;;1.19;94.03;100701.50;10372785;28;20052;-75
2022/04/07 01:50:25;;;;;;;15.20;12.57;;;;;;;1.45;94.10;100769.66;10372548;28;20054;-76
2022/04/07 01:55:27;;;;;;;19.00;14.77;;;;;;;1.39;94.52;100759.56;10371519;28;20052;-76
2022/04/07 02:00:28;;;;;;;80.72;14.00;;;;;;;0.90;94.15;100678.06;10371886;28;20041;-76
2022/04/07 02:05:29;;;;;;;18.67;13.02;;;;;;;1.20;94.58;100711.03;10371621;28;20034;-76
2022/04/07 02:10:31;;;;;;;50.17;15.73;;;;;;;1.15;94.39;100694.78;10368255;28;20088;-75
2022/04/07 02:15:32;;;;;;;216.10;22.25;;;;;;;0.87;95.15;100646.03;10371678;28;20049;-76
2022/04/07 02:20:33;;;;;;;450.95;28.88;;;;;;;1.25;95.60;100697.63;10371049;28;20210;-75
2022/04/07 02:25:34;;;;;;;596.60;27.08;;;;;;;1.68;96.13;100766.38;10372463;28;20052;-75
2022/04/07 02:30:35;;;;;;;125.30;16.27;;;;;;;0.83;95.80;100639.28;10371947;28;20048;-76
2022/04/07 02:35:35;;;;;;;137.45;17.52;;;;;;;1.60;95.42;100781.75;10364007;28;20379;-76
2022/04/07 02:40:36;;;;;;;193.13;22.10;;;;;;;1.08;95.25;100724.91;10357068;28;20088;-76
2022/04/07 02:45:37;;;;;;;305.15;23.20;;;;;;;1.53;95.24;100817.13;10357026;28;20050;-76
2022/04/07 02:50:38;;;;;;;364.90;21.38;;;;;;;1.27;96.81;100746.34;10352769;28;20058;-76
2022/04/07 02:55:39;;;;;;;223.98;19.13;;;;;;;0.22;96.28;100578.69;10353271;28;20041;-76
2022/04/07 03:00:40;;;;;;;115.32;17.42;;;;;;;1.72;96.66;100794.03;10350840;28;20140;-76
2022/04/07 03:05:40;;;;;;;52.83;12.73;;;;;;;1.01;96.42;100677.34;10349239;28;20069;-76
2022/04/07 03:10:41;;;;;;;24.15;10.85;;;;;;;1.95;95.28;100786.47;10350928;28;20073;-75
2022/04/07 03:15:42;;;;;;;40.92;12.60;;;;;;;2.10;95.13;100777.56;10341883;28;20132;-77
2022/04/07 03:20:43;;;;;;;44.13;12.60;;;;;;;2.34;93.95;100803.09;10362600;28;20107;-75
2022/04/07 03:25:45;;;;;;;84.35;14.18;;;;;;;2.51;94.56;100800.13;10373877;28;20509;-75
2022/04/07 03:30:46;;;;;;;123.40;15.23;;;;;;;2.49;93.74;100775.81;10377539;28;20056;-76
2022/04/07 03:35:47;;;;;;;342.27;21.02;;;;;;;2.16;93.91;100713.44;10377002;28;20125;-76
2022/04/07 03:40:48;;;;;;;265.48;17.70;;;;;;;2.49;93.58;100757.47;10376186;28;20054;-77
2022/04/07 03:45:49;;;;;;;127.45;15.93;;;;;;;2.07;93.50;100666.88;10376314;28;20041;-76
2022/04/07 03:50:49;;;;;;;185.70;18.55;;;;;;;3.13;92.97;100789.66;10377220;28;20551;-76
2022/04/07 03:55:51;;;;;;;195.85;18.58;;;;;;;2.68;92.98;100683.56;10371017;28;20114;-77
2022/04/07 04:00:52;;;;;;;147.07;16.55;;;;;;;3.70;93.01;100787.34;10412993;28;20475;-77
2022/04/07 04:05:53;;;;;;;183.45;16.45;;;;;;;3.42;92.36;100668.56;10414006;28;20555;-80
2022/04/07 04:10:54;;;;;;;121.50;14.45;;;;;;;3.86;91.68;100657.34;10390807;28;20060;-84
2022/04/07 04:15:56;;;;;;;73.13;13.23;;;;;;;4.98;90.94;100790.69;10371370;28;20061;-79
2022/04/07 04:20:57;;;;;;;31.63;10.85;;;;;;;5.56;90.37;100790.44;10339740;28;20050;-83
2022/04/07 04:25:57;;;;;;;58.47;10.90;;;;;;;6.19;89.10;100803.75;10374344;28;20049;-81
2022/04/07 04:30:58;;;;;;;21.10;11.52;;;;;;;5.97;88.33;100693.13;10341773;28;20580;-76
2022/04/07 04:35:59;;;;;;;13.05;11.05;;;;;;;6.69;87.24;100748.47;10333225;28;20520;-74
2022/04/07 04:41:00;;;;;;;12.63;10.05;;;;;;;7.54;86.84;100800.03;10315952;28;20077;-76
2022/04/07 04:46:01;;;;;;;14.45;10.48;;;;;;;7.75;84.96;100794.63;10332637;28;20042;-77
2022/04/07 04:51:05;;;;;;;13.30;9.70;;;;;;;7.90;83.64;100795.03;10333862;28;20433;-78
2022/04/07 04:56:06;;;;;;;13.23;10.73;;;;;;;7.32;83.43;100696.19;10352531;28;20050;-80
2022/04/07 05:01:07;;;;;;;10.52;9.50;;;;;;;8.33;83.28;100836.91;10336430;28;20497;-79
2022/04/07 05:06:08;;;;;;;14.30;10.63;;;;;;;8.60;82.18;100801.78;10331145;28;20081;-80
2022/04/07 05:11:09;;;;;;;16.58;10.40;;;;;;;8.40;81.64;100705.66;10331907;28;20042;-79
2022/04/07 05:16:15;;;;;;;11.98;10.57;;;;;;;9.59;80.70;100801.16;10332015;28;20050;-79
2022/04/07 05:21:16;;;;;;;15.38;10.30;;;;;;;9.59;80.32;100729.53;10333274;28;20077;-79
2022/04/07 05:26:17;;;;;;;12.90;9.77;;;;;;;9.68;80.50;100703.91;10315262;28;20046;-79
2022/04/07 05:31:18;;;;;;;15.65;10.38;;;;;;;10.42;81.10;100763.72;10331379;28;20529;-76
2022/04/07 05:36:19;;;;;;;15.32;10.93;;;;;;;10.97;80.46;100797.88;10313915;28;20136;-79
2022/04/07 05:41:20;;;;;;;11.43;8.98;;;;;;;10.18;79.48;100635.09;10332224;28;20045;-79
2022/04/07 05:46:21;;;;;;;16.30;11.32;;;;;;;11.11;79.86;100730.78;10331724;28;20034;-79
2022/04/07 05:51:22;;;;;;;18.48;11.90;;;;;;;11.93;79.37;100801.97;10331642;28;20054;-79
2022/04/07 05:56:22;;;;;;;13.90;10.93;;;;;;;11.92;78.35;100769.19;10329986;28;20054;-79
2022/04/07 06:01:23;;;;;;;15.00;10.13;;;;;;;12.32;76.50;100784.31;10331140;28;20050;-79
2022/04/07 06:06:24;;;;;;;13.63;9.68;;;;;;;12.47;74.49;100780.94;10329052;28;20038;-80
2022/04/07 06:11:25;;;;;;;13.23;10.02;;;;;;;12.84;73.32;100768.88;10334720;28;20520;-80
2022/04/07 06:16:25;;;;;;;13.00;9.95;;;;;;;12.93;72.40;100734.00;10339078;28;20042;-79
2022/04/07 06:21:29;;;;;;;14.13;9.55;;;;;;;12.83;71.61;100729.88;10339301;28;20516;-79
2022/04/07 06:26:30;;;;;;;24.45;9.95;;;;;;;12.34;71.38;100640.28;10338588;28;20042;-78
2022/04/07 06:31:31;;;;;;;12.63;9.90;;;;;;;13.17;70.93;100773.06;10319380;28;20108;-78
2022/04/07 06:36:31;;;;;;;14.32;10.00;;;;;;;13.34;70.03;100752.50;10338398;28;20049;-80
2022/04/07 06:41:33;;;;;;;13.77;7.97;;;;;;;13.14;69.00;100682.72;10337433;28;20053;-80
2022/04/07 06:46:34;;;;;;;13.13;8.95;;;;;;;13.14;66.55;100602.69;10337344;28;20065;-78
2022/04/07 06:51:35;;;;;;;11.98;9.30;;;;;;;14.15;66.55;100718.97;10370595;28;20058;-78
2022/04/07 06:56:36;;;;;;;11.98;8.18;;;;;;;14.01;65.70;100694.91;10375862;28;20515;-78
2022/04/07 07:01:37;;;;;;;12.60;8.00;;;;;;;14.36;64.49;100709.41;10375984;28;20045;-77
2022/04/07 07:06:38;;;;;;;13.52;6.95;;;;;;;14.72;63.28;100727.41;10378652;28;20041;-79
2022/04/07 07:11:38;;;;;;;8.45;5.88;;;;;;;14.78;60.54;100718.66;10377446;28;20107;-78
2022/04/07 07:16:39;;;;;;;7.72;5.13;;;;;;;14.91;59.90;100685.88;10376839;28;20112;-78
2022/04/07 07:21:40;;;;;;;8.10;5.35;;;;;;;15.23;59.54;100708.69;10377561;28;20042;-79
2022/04/07 07:26:40;;;;;;;6.60;5.15;;;;;;;15.26;58.63;100692.25;10377500;28;20049;-79
2022/04/07 07:31:41;;;;;;;8.35;5.57;;;;;;;15.55;57.82;100687.78;10376719;28;20129;-78
2022/04/07 07:36:42;;;;;;;7.63;4.82;;;;;;;14.91;56.96;100560.97;10376156;28;20132;-79
2022/04/07 07:41:43;;;;;;;9.70;4.70;;;;;;;15.81;56.50;100671.97;10375764;28;20092;-79
2022/04/07 07:46:43;;;;;;;10.38;4.68;;;;;;;16.04;55.89;100662.88;10376239;28;20099;-77
2022/04/07 07:51:44;;;;;;;8.73;4.57;;;;;;;15.74;55.60;100580.03;10375955;28;20567;-79
2022/04/07 07:56:45;;;;;;;7.80;4.70;;;;;;;16.22;55.09;100647.09;10375654;28;20057;-79
2022/04/07 08:01:48;;;;;;;7.55;4.95;;;;;;;16.02;56.19;100584.50;10375555;28;20547;-81
2022/04/07 08:06:49;;;;;;;8.23;5.20;;;;;;;15.80;56.66;100640.84;10375665;28;20042;-79
2022/04/07 08:11:50;;;;;;;7.32;4.20;;;;;;;15.83;56.05;100589.56;10375859;28;20460;-80
2022/04/07 08:16:51;;;;;;;4.93;4.03;;;;;;;16.84;55.57;100635.44;10374481;28;20041;-79
2022/04/07 08:21:52;;;;;;;14.77;4.72;;;;;;;16.93;54.09;100627.19;10374778;28;20456;-79
2022/04/07 08:26:53;;;;;;;5.22;4.05;;;;;;;15.97;54.45;100513.59;10374082;28;20049;-79
2022/04/07 08:31:55;;;;;;;8.98;3.97;;;;;;;16.09;54.62;100594.22;10374278;28;20394;-79
2022/04/07 08:36:55;;;;;;;7.05;3.38;;;;;;;15.93;52.73;100495.44;10374229;28;20049;-80
2022/04/07 08:41:57;;;;;;;6.18;3.47;;;;;;;16.57;52.80;100548.66;10374141;28;20038;-79
2022/04/07 08:46:58;;;;;;;6.97;3.38;;;;;;;16.56;50.43;100546.16;10373318;28;20046;-80
2022/04/07 08:52:00;;;;;;;5.57;3.13;;;;;;;16.89;51.46;100563.19;10373732;28;20142;-80
2022/04/07 08:57:01;;;;;;;5.45;2.92;;;;;;;17.13;51.21;100506.44;10373983;28;20041;-78
2022/04/07 09:02:03;;;;;;;5.45;3.13;;;;;;;17.48;49.84;100485.53;10373999;28;20086;-81
2022/04/07 09:07:04;;;;;;;4.20;2.60;;;;;;;17.73;48.96;100528.66;10371035;28;20050;-80
2022/04/07 09:12:06;;;;;;;9.15;2.90;;;;;;;16.55;48.41;100313.91;10373281;28;20038;-80
2022/04/07 09:17:07;;;;;;;4.57;2.45;;;;;;;17.93;47.99;100513.34;10373301;28;20042;-80
2022/04/07 09:22:10;;;;;;;4.03;2.60;;;;;;;18.01;47.83;100480.03;10372286;28;20046;-81
2022/04/07 09:27:12;;;;;;;5.97;2.57;;;;;;;18.09;46.81;100479.78;10372141;28;20053;-85
2022/04/07 09:32:21;;;;;;;4.07;2.83;;;;;;;17.46;48.01;100391.75;10354466;28;20038;-80
2022/04/07 09:37:25;;;;;;;5.72;3.17;;;;;;;17.91;47.56;100495.78;10371976;28;20116;-82
2022/04/07 09:42:26;;;;;;;5.15;3.10;;;;;;;17.68;48.21;100403.03;10372089;28;20046;-82
2022/04/07 09:47:37;;;;;;;5.50;2.80;;;;;;;18.42;46.23;100481.47;10378669;28;20038;-82
2022/04/07 09:52:40;;;;;;;5.03;2.92;;;;;;;17.37;47.20;100370.72;10380327;28;20054;-80
2022/04/07 09:57:41;;;;;;;4.47;2.97;;;;;;;18.27;46.74;100435.22;10379997;28;20129;-81
2022/04/07 10:02:42;;;;;;;5.90;2.70;;;;;;;18.36;46.17;100458.13;10380897;28;20053;-82
2022/04/07 10:07:43;;;;;;;4.40;3.10;;;;;;;17.98;46.86;100432.09;10380419;28;20493;-81
2022/04/07 10:12:47;;;;;;;5.43;3.20;;;;;;;17.40;46.62;100295.91;10380041;28;20045;-82
2022/04/07 10:17:48;;;;;;;6.07;2.67;;;;;;;18.18;46.72;100443.53;10379827;28;20351;-81
2022/04/07 10:22:58;;;;;;;4.30;2.67;;;;;;;17.55;47.72;100432.63;10379616;28;20113;-81
2022/04/07 10:28:04;;;;;;;7.20;2.33;;;;;;;17.18;46.94;100322.25;10379150;28;20038;-81
2022/04/07 10:33:05;;;;;;;5.00;2.78;;;;;;;18.67;46.16;100417.78;10378947;28;20046;-82
2022/04/07 10:38:07;;;;;;;6.72;3.13;;;;;;;19.10;45.53;100408.09;10378593;28;20037;-81
2022/04/07 10:43:18;;;;;;;3.97;2.63;;;;;;;17.91;45.35;100200.97;10378519;28;20405;-79
2022/04/07 10:48:30;;;;;;;5.18;2.50;;;;;;;18.61;43.66;100319.09;10378539;28;20104;-82
2022/04/07 10:53:39;;;;;;;6.88;2.60;;;;;;;19.29;44.88;100392.78;10375315;28;20149;-81
2022/04/07 10:58:49;;;;;;;8.50;2.92;;;;;;;18.61;44.76;100286.81;10377202;28;20490;-82
2022/04/07 11:04:18;;;;;;;10.23;2.92;;;;;;;19.23;44.07;100388.28;10377147;28;20437;-82
2022/04/07 11:09:22;;;;;;;7.53;2.40;;;;;;;18.54;43.42;100328.25;10377700;28;20136;-81
2022/04/07 11:14:27;;;;;;;6.15;2.47;;;;;;;18.06;44.08;100293.91;10377599;28;20041;-80
2022/04/07 11:19:50;;;;;;;10.75;2.88;;;;;;;17.88;42.87;100246.28;10376868;28;20048;-81
2022/04/07 11:24:54;;;;;;;4.78;2.25;;;;;;;18.50;43.02;100376.31;10377763;28;20199;-85
2022/04/07 11:30:09;;;;;;;6.63;2.60;;;;;;;18.42;43.08;100369.31;10376993;28;20558;-82
2022/04/07 11:35:14;;;;;;;5.82;2.33;;;;;;;18.17;43.38;100349.66;10377009;28;20042;-83
2022/04/07 11:40:15;;;;;;;4.60;2.13;;;;;;;16.79;43.77;100148.81;10377084;28;20073;-81
2022/04/07 11:45:18;;;;;;;7.03;2.10;;;;;;;18.18;43.40;100351.31;10375733;28;20492;-82
2022/04/07 11:50:19;;;;;;;12.00;2.13;;;;;;;17.81;43.39;100293.88;10375770;28;20049;-80
2022/04/07 11:55:30;;;;;;;6.57;1.83;;;;;;;17.73;43.02;100246.56;10376224;28;20524;-80
2022/04/07 12:00:34;;;;;;;5.95;1.92;;;;;;;18.00;43.09;100309.03;10358153;28;20397;-79
2022/04/07 12:05:38;;;;;;;;;;;;;;;18.32;43.50;100309.84;10375566;28;20049;-80
2022/04/07 12:10:45;;;;;;;7.32;2.20;;;;;;;17.98;43.20;100311.13;10374894;28;20427;-80
2022/04/07 12:15:45;;;;;;;4.90;2.10;;;;;;;17.99;44.28;100302.03;10375557;28;20042;-79
2022/04/07 12:20:58;;;;;;;3.55;2.20;;;;;;;17.85;43.69;100303.16;10352068;28;20046;-72
2022/04/07 12:26:01;;;;;;;7.85;2.67;;;;;;;17.83;44.67;100294.47;10330130;28;20076;-75
2022/04/07 12:31:02;;;;;;;7.00;2.30;;;;;;;17.20;45.02;100182.44;10328970;28;20057;-76
2022/04/07 12:36:04;;;;;;;9.93;2.63;;;;;;;16.73;45.07;100141.59;10329243;28;20054;-77
2022/04/07 12:41:15;;;;;;;9.68;2.35;;;;;;;17.67;45.32;100280.47;10331073;28;20050;-75
2022/04/07 12:46:20;;;;;;;10.82;2.55;;;;;;;17.72;44.89;100275.28;10332970;28;20113;-75
2022/04/07 12:51:24;;;;;;;16.85;2.92;;;;;;;17.24;45.24;100232.81;10333129;28;20058;-76
2022/04/07 12:56:27;;;;;;;10.40;2.70;;;;;;;16.77;45.06;100166.97;10357216;28;20046;-76
2022/04/07 13:01:31;;;;;;;9.77;2.50;;;;;;;16.94;44.96;100215.63;10371115;28;20046;-77
2022/04/07 13:06:32;;;;;;;33.83;2.65;;;;;;;16.84;44.79;100213.34;10340887;28;20141;-76
2022/04/07 13:11:38;;;;;;;8.93;2.47;;;;;;;17.16;44.55;100259.88;10312444;28;20040;-75
2022/04/07 13:16:40;;;;;;;8.10;2.45;;;;;;;16.91;44.53;100267.84;10342528;28;20143;-77
2022/04/07 13:21:41;;;;;;;10.02;2.72;;;;;;;15.97;43.98;100178.69;10373430;28;20046;-76
2022/04/07 13:26:44;;;;;;;8.30;2.50;;;;;;;15.16;44.90;100042.31;10372815;28;20038;-76
2022/04/07 13:31:45;;;;;;;6.22;2.47;;;;;;;16.49;45.16;100269.16;10355327;28;20042;-75
2022/04/07 13:36:46;;;;;;;11.30;2.80;;;;;;;16.35;45.58;100266.47;10354217;28;20042;-76
2022/04/07 13:41:47;;;;;;;12.15;3.13;;;;;;;16.17;45.49;100247.50;10363580;28;20069;-76
2022/04/07 13:46:48;;;;;;;11.25;3.53;;;;;;;14.83;45.65;100066.34;10372618;28;20073;-73
2022/04/07 13:51:49;;;;;;;9.02;3.08;;;;;;;15.54;46.28;100199.66;10372397;28;20058;-79
2022/04/07 13:56:49;;;;;;;8.90;3.55;;;;;;;14.53;46.67;100063.19;10358453;28;20038;-75
2022/04/07 14:01:50;;;;;;;5.97;3.03;;;;;;;14.98;47.31;100149.09;10345613;28;20046;-75
2022/04/07 14:06:51;;;;;;;9.70;3.55;;;;;;;15.52;47.70;100240.03;10344626;28;20038;-76
2022/04/07 14:11:52;;;;;;;8.48;3.78;;;;;;;14.07;48.00;100029.88;10347823;28;20033;-77
2022/04/07 14:16:53;;;;;;;7.93;3.72;;;;;;;14.46;48.17;100113.91;10347567;28;20092;-76
2022/04/07 14:21:54;;;;;;;8.60;4.22;;;;;;;15.06;48.80;100213.13;10346599;28;20040;-76
2022/04/07 14:26:55;;;;;;;10.48;3.88;;;;;;;14.13;49.37;100073.69;10346565;28;20033;-76
2022/04/07 14:31:57;;;;;;;9.65;3.85;;;;;;;14.45;49.39;100138.16;10364608;28;20038;-76
2022/04/07 14:36:57;;;;;;;9.77;4.22;;;;;;;14.06;49.28;100095.03;10338051;28;20084;-79
2022/04/07 14:41:58;;;;;;;9.43;4.05;;;;;;;14.53;49.09;100184.28;10363046;28;20476;-75
2022/04/07 14:46:59;;;;;;;9.77;3.30;;;;;;;13.87;49.28;100103.72;10345841;28;20045;-76
2022/04/07 14:52:00;;;;;;;9.75;3.00;;;;;;;14.38;50.04;100205.75;10377172;28;20387;-77
2022/04/07 14:57:01;;;;;;;9.18;3.55;;;;;;;14.07;50.25;100178.63;10362363;28;20042;-77
2022/04/07 15:02:01;;;;;;;10.20;3.70;;;;;;;14.14;50.62;100209.69;10348926;28;20529;-79
2022/04/07 15:07:02;;;;;;;9.20;3.17;;;;;;;13.87;51.52;100191.81;10364224;28;20056;-78
2022/04/07 15:12:05;;;;;;;12.23;3.70;;;;;;;13.36;51.76;100147.44;10378194;28;20065;-79
2022/04/07 15:17:08;;;;;;;8.20;3.30;;;;;;;13.40;52.63;100171.91;10357244;28;20416;-78
2022/04/07 15:22:09;;;;;;;9.43;2.70;;;;;;;13.18;52.96;100155.84;10375730;28;20132;-79
2022/04/07 15:27:09;;;;;;;9.07;2.90;;;;;;;12.40;53.04;100058.00;10375885;28;20149;-80
2022/04/07 15:32:10;;;;;;;10.20;2.20;;;;;;;12.67;53.74;100125.75;10376878;28;20120;-77
2022/04/07 15:37:11;;;;;;;9.77;2.97;;;;;;;12.53;54.94;100154.94;10358529;28;20046;-80
2022/04/07 15:42:12;;;;;;;8.25;2.75;;;;;;;11.73;55.55;100054.44;10372870;28;20050;-76
2022/04/07 15:47:13;;;;;;;13.32;2.88;;;;;;;11.67;56.98;100068.47;10350593;28;20045;-77
2022/04/07 15:52:17;;;;;;;7.10;2.90;;;;;;;11.10;57.77;100007.84;10361382;28;20070;-78
2022/04/07 15:57:18;;;;;;;14.02;3.13;;;;;;;11.53;58.13;100091.38;10347512;28;20501;-82
2022/04/07 16:02:19;;;;;;;12.77;3.30;;;;;;;10.68;58.47;99985.25;10351558;28;20054;-78
2022/04/07 16:07:22;;;;;;;7.35;2.50;;;;;;;10.99;59.17;100053.44;10332914;28;20051;-79
2022/04/07 16:12:23;;;;;;;9.43;3.15;;;;;;;10.98;59.94;100084.53;10350962;28;20050;-79
2022/04/07 16:17:24;;;;;;;13.43;2.78;;;;;;;10.11;60.02;99966.97;10351642;28;20050;-79
2022/04/07 16:22:25;;;;;;;6.93;2.42;;;;;;;10.93;60.64;100116.13;10346476;28;20618;-79
2022/04/07 16:27:26;;;;;;;5.63;2.50;;;;;;;10.91;61.11;100116.28;10339246;28;20104;-70
2022/04/07 16:32:27;;;;;;;5.75;2.80;;;;;;;10.49;61.20;100066.22;10348739;28;20129;-77
2022/04/07 16:37:28;;;;;;;10.20;2.80;;;;;;;10.30;61.55;100064.00;10345932;28;20409;-77
2022/04/07 16:42:28;;;;;;;6.93;3.03;;;;;;;10.00;62.07;100023.94;10348787;28;20383;-79
2022/04/07 16:47:29;;;;;;;5.82;3.42;;;;;;;9.71;62.61;100000.66;10347724;28;21635;-79
2022/04/07 16:52:30;;;;;;;13.27;3.92;;;;;;;9.82;62.83;100040.09;10351027;28;20089;-76
2022/04/07 16:57:31;;;;;;;6.95;3.47;;;;;;;10.05;63.58;100079.97;10349990;28;20070;-76
2022/04/07 17:02:35;;;;;;;10.55;3.60;;;;;;;8.95;64.00;99919.84;10351358;28;20041;-78
2022/04/07 17:07:36;;;;;;;;;;;;;;;10.11;63.09;100110.31;10348672;28;20173;-81
2022/04/07 17:12:40;;;;;;;10.10;3.60;;;;;;;9.66;64.65;100082.56;10352612;28;20356;-76
2022/04/07 17:17:43;;;;;;;6.82;3.38;;;;;;;9.76;65.13;100107.91;10371096;28;20068;-75
2022/04/07 17:22:47;;;;;;;11.95;3.63;;;;;;;9.01;65.33;100009.25;10354372;28;20881;-78
2022/04/07 17:27:48;;;;;;;11.13;3.10;;;;;;;8.40;65.67;99929.25;10341994;28;20037;-78
2022/04/07 17:32:48;;;;;;;7.82;2.90;;;;;;;9.32;66.21;100091.53;10345977;28;20065;-77
2022/04/07 17:37:49;;;;;;;5.13;2.63;;;;;;;9.01;66.39;100070.19;10346872;28;20042;-78
2022/04/07 17:42:53;;;;;;;4.82;2.45;;;;;;;8.15;66.42;99931.84;10372330;28;20045;-77
2022/04/07 17:47:54;;;;;;;7.70;2.85;;;;;;;9.10;67.04;100098.34;10372827;28;20057;-75
2022/04/07 17:52:54;;;;;;;10.32;2.55;;;;;;;8.60;67.11;100014.50;10372700;28;20053;-78
2022/04/07 17:57:55;;;;;;;6.40;2.90;;;;;;;8.70;67.47;100025.75;10368581;28;20516;-76
2022/04/07 18:02:56;;;;;;;5.07;2.78;;;;;;;8.61;67.66;100022.25;10371547;28;20461;-76
2022/04/07 18:07:57;;;;;;;10.07;3.40;;;;;;;8.57;67.61;100031.53;10376646;28;20041;-76
2022/04/07 18:12:59;;;;;;;8.55;2.75;;;;;;;8.76;67.70;100066.66;10379400;28;20038;-76
2022/04/07 18:17:59;;;;;;;4.38;2.90;;;;;;;7.96;67.62;99959.41;10379451;28;20050;-76
2022/04/07 18:23:01;;;;;;;10.40;3.13;;;;;;;8.19;67.74;99991.38;10359456;28;20417;-76
2022/04/07 18:28:02;;;;;;;8.10;3.40;;;;;;;8.35;67.88;100038.25;10378825;28;20042;-76
2022/04/07 18:33:04;;;;;;;6.18;3.05;;;;;;;7.90;68.15;99980.38;10378948;28;20060;-76
2022/04/07 18:38:05;;;;;;;10.07;3.47;;;;;;;7.88;68.20;99975.25;10378831;28;20547;-76
2022/04/07 18:43:06;;;;;;;11.32;3.85;;;;;;;7.89;67.93;99989.28;10379278;28;20041;-76
2022/04/07 18:48:06;;;;;;;10.52;3.88;;;;;;;8.14;68.16;100025.44;10379176;28;20042;-76
2022/04/07 18:53:12;;;;;;;12.35;3.72;;;;;;;8.21;68.12;100039.69;10378636;28;20140;-77
2022/04/07 18:58:13;;;;;;;10.07;3.83;;;;;;;7.34;67.90;99905.13;10378370;28;20041;-76
2022/04/07 19:03:16;;;;;;;7.55;3.80;;;;;;;7.69;67.92;99946.44;10361022;28;20060;-76
2022/04/07 19:08:18;;;;;;;7.35;3.70;;;;;;;8.18;68.06;100040.00;10377941;28;20042;-76
2022/04/07 19:13:19;;;;;;;8.00;4.65;;;;;;;7.99;67.92;99996.13;10377641;28;20041;-76
2022/04/07 19:18:20;;;;;;;8.82;4.50;;;;;;;7.42;67.69;99892.78;10376579;28;20033;-76
2022/04/07 19:23:21;;;;;;;61.05;32.10;;;;;;;8.03;67.32;99986.03;10378112;28;20188;-76
2022/04/07 19:28:21;;;;;;;16.80;8.52;;;;;;;8.10;67.61;99996.81;10377123;28;20046;-76
2022/04/07 19:33:22;;;;;;;29.58;17.25;;;;;;;7.86;67.84;99979.03;10376140;28;20444;-76
2022/04/07 19:38:23;;;;;;;21.27;11.25;;;;;;;7.69;67.66;99943.78;10358900;28;20041;-76
2022/04/07 19:43:24;;;;;;;34.72;18.95;;;;;;;7.51;67.70;99920.06;10376895;28;20050;-76
2022/04/07 19:48:25;;;;;;;32.15;13.65;;;;;;;7.85;68.21;99982.66;10376185;28;20044;-76
2022/04/07 19:53:26;;;;;;;24.77;14.63;;;;;;;6.81;68.30;99807.44;10376347;28;20497;-76
2022/04/07 19:58:27;;;;;;;37.55;22.35;;;;;;;7.22;68.44;99881.63;10375366;28;20048;-77
2022/04/07 20:03:27;;;;;;;29.30;14.25;;;;;;;7.02;68.53;99844.03;10375183;28;20456;-76
2022/04/07 20:08:28;;;;;;;14.73;7.88;;;;;;;7.66;68.58;99947.56;10375748;28;20045;-76
2022/04/07 20:13:29;;;;;;;26.73;13.07;;;;;;;7.58;68.60;99928.19;10374651;28;20486;-76
2022/04/07 20:18:30;;;;;;;15.50;9.52;;;;;;;6.13;68.95;99717.66;10375269;28;20107;-76
2022/04/07 20:23:32;;;;;;;17.60;9.90;;;;;;;7.36;69.17;99916.34;10374487;28;20108;-77
2022/04/07 20:28:34;;;;;;;21.42;12.23;;;;;;;6.74;68.95;99824.09;10374926;28;20053;-77
2022/04/07 20:33:34;;;;;;;72.82;29.45;;;;;;;7.28;68.91;99883.63;10371081;28;20116;-76
2022/04/07 20:38:35;;;;;;;28.05;13.85;;;;;;;7.30;68.69;99891.41;10374391;28;20100;-76
2022/04/07 20:43:36;;;;;;;15.68;7.90;;;;;;;7.39;68.94;99881.66;10374756;28;20050;-76
2022/04/07 20:48:37;;;;;;;21.50;9.93;;;;;;;6.64;69.10;99758.19;10374390;28;20059;-76
2022/04/07 20:53:38;;;;;;;44.28;16.98;;;;;;;6.83;68.27;99765.06;10374216;28;20065;-76
2022/04/07 20:58:38;;;;;;;26.88;11.27;;;;;;;7.20;68.71;99825.47;10374268;28;20136;-76
2022/04/07 21:03:39;;;;;;;16.30;9.70;;;;;;;7.40;68.92;99838.44;10372912;28;20132;-76
2022/04/07 21:08:40;;;;;;;11.30;6.75;;;;;;;6.81;69.43;99752.00;10373792;28;20044;-76
2022/04/07 21:13:41;;;;;;;15.10;7.07;;;;;;;7.04;69.15;99796.34;10372632;28;20049;-76
2022/04/07 21:18:42;;;;;;;9.18;6.30;;;;;;;6.98;70.05;99760.84;10372580;28;20038;-76
2022/04/07 21:23:42;;;;;;;10.35;5.78;;;;;;;6.60;70.42;99696.16;10354974;28;20049;-76
2022/04/07 21:28:43;;;;;;;12.02;6.93;;;;;;;6.55;70.37;99690.50;10372312;28;20042;-76
2022/04/07 21:33:44;;;;;;;12.02;7.80;;;;;;;6.51;70.02;99652.25;10372837;28;20053;-77
2022/04/07 21:38:45;;;;;;;16.85;8.63;;;;;;;6.86;70.28;99718.03;10355002;28;20041;-76
2022/04/07 21:43:46;;;;;;;8.13;5.97;;;;;;;7.19;70.26;99763.06;10371954;28;20037;-76
2022/04/07 21:48:47;;;;;;;9.18;5.53;;;;;;;6.50;70.69;99650.59;10371367;28;20172;-76
2022/04/07 21:53:48;;;;;;;7.90;5.97;;;;;;;7.09;71.25;99738.59;10371820;28;20107;-76
2022/04/07 21:58:48;;;;;;;6.50;5.50;;;;;;;6.63;71.52;99669.44;10372159;28;20049;-76
2022/04/07 22:03:49;;;;;;;7.63;5.95;;;;;;;6.65;71.58;99662.22;10372110;28;20053;-76
2022/04/07 22:08:50;;;;;;;7.90;5.95;;;;;;;6.26;71.63;99596.75;10372406;28;20041;-76
2022/04/07 22:13:51;;;;;;;9.35;5.80;;;;;;;6.72;72.01;99688.78;10371943;28;20052;-76
2022/04/07 22:18:52;;;;;;;14.13;5.78;;;;;;;6.40;71.95;99632.25;10371166;28;20038;-76
2022/04/07 22:23:52;;;;;;;8.35;5.57;;;;;;;6.42;72.42;99645.28;10354112;28;20045;-76
2022/04/07 22:28:53;;;;;;;9.98;5.97;;;;;;;6.71;72.95;99708.25;10371423;28;20034;-76
2022/04/07 22:33:54;;;;;;;9.75;5.68;;;;;;;6.08;73.49;99601.28;10371048;28;20502;-77
2022/04/07 22:38:55;;;;;;;8.95;5.45;;;;;;;5.99;73.83;99597.78;10371302;28;20034;-77
2022/04/07 22:43:56;;;;;;;7.18;5.15;;;;;;;5.73;74.35;99535.31;10370842;28;20042;-77
2022/04/07 22:48:57;;;;;;;9.38;5.20;;;;;;;5.54;74.78;99525.03;10370678;28;20038;-76
2022/04/07 22:54:07;;;;;;;12.35;5.88;;;;;;;6.21;75.29;99643.03;10376165;28;20076;-76
2022/04/07 22:59:07;;;;;;;12.30;4.60;;;;;;;6.18;75.33;99625.72;10377957;28;20077;-76
2022/04/07 23:04:09;;;;;;;7.10;4.93;;;;;;;5.55;75.66;99524.03;10379268;28;20041;-76
2022/04/07 23:09:09;;;;;;;7.40;5.13;;;;;;;6.02;75.85;99596.63;10377385;28;20559;-76